Carnival Valor — H3VR — position and weather

sailwx.info

Track history (hours):
 
Tides and Currents Weather Stations Pressure Air Temp Water Temp Dewpoint Dewpoint Depression Visibility Wind Speed Wind Dir Waves Ship Positions

Carnival Valor

Last reported at 2014-Aug-30 23:17 UTC. Time now 2014-Sep-03 07:02 UTC.
Position N 18°01' W 063°23'.

Type: Ship. MMSI: 354298000.

Date/timePositionNaut miles runAvg speedWind from/ knotsBaromVisibWave heightAir tempDewpointWater temp
2014-Aug-30 23:17N 18°01' W 063°23'1417.5
2014-Aug-30 22:28N 18°00' W 063°08'5 2.4
2014-Aug-30 20:26N 18°01' W 063°03'0 0.0
2014-Aug-30 18:18N 18°01' W 063°03'0 0.0
2014-Aug-30 17:07N 18°01' W 063°03'0 0.0
2014-Aug-30 16:12N 18°01' W 063°03'0 0.0
2014-Aug-30 15:21N 18°01' W 063°03'0 0.0
2014-Aug-30 14:17N 18°01' W 063°03'0 0.0
2014-Aug-30 13:26N 18°01' W 063°03'0 0.0
2014-Aug-30 12:23N 18°01' W 063°03'0 0.0
2014-Aug-30 11:28N 18°01' W 063°03'9 4.5
2014-Aug-30 09:25N 18°00' W 063°12'9 8.5
2014-Aug-30 08:25N 18°03' W 063°21'9 9.3
2014-Aug-30 07:27N 18°06' W 063°30'9 9.6
2014-Aug-30 06:33N 18°09' W 063°38'9 8.6
2014-Aug-30 05:30N 17°60' W 063°37'1010.0
2014-Aug-30 04:29N 17°59' W 063°27'  
2014-Aug-26 12:00N 16°00' W 062°48'   070 / 81014.0 5.4 0.528.020.929.0
2014-Aug-23 23:32N 18°03' W 063°39'2116.3
2014-Aug-23 22:13N 18°00' W 063°17'1015.9
2014-Aug-23 21:33N 18°00' W 063°06'14 0.8
2014-Aug-23 03:26N 17°52' W 063°18'3610.5
2014-Aug-23 00:00N 17°24' W 062°54'   120 / 141012.010.8 0.528.022.429.0
Track history (hours):
 
Tides and Currents Weather Stations Pressure Air Temp Water Temp Dewpoint Dewpoint Depression Visibility Wind Speed Wind Dir Waves Ship Positions

Carnival Valor

Last reported at 2014-Aug-30 23:17 UTC. Time now 2014-Sep-03 07:02 UTC.
Position N 18°01' W 063°23'.

Type: Ship. MMSI: 354298000.

Date/timePositionNaut miles runAvg speedWind from/ knotsBaromVisibWave heightAir tempDewpointWater temp
2014-Aug-30 23:17N 18°01' W 063°23'1417.5
2014-Aug-30 22:28N 18°00' W 063°08'5 2.4
2014-Aug-30 20:26N 18°01' W 063°03'0 0.0
2014-Aug-30 18:18N 18°01' W 063°03'0 0.0
2014-Aug-30 17:07N 18°01' W 063°03'0 0.0
2014-Aug-30 16:12N 18°01' W 063°03'0 0.0
2014-Aug-30 15:21N 18°01' W 063°03'0 0.0
2014-Aug-30 14:17N 18°01' W 063°03'0 0.0
2014-Aug-30 13:26N 18°01' W 063°03'0 0.0
2014-Aug-30 12:23N 18°01' W 063°03'0 0.0
2014-Aug-30 11:28N 18°01' W 063°03'9 4.5
2014-Aug-30 09:25N 18°00' W 063°12'9 8.5
2014-Aug-30 08:25N 18°03' W 063°21'9 9.3
2014-Aug-30 07:27N 18°06' W 063°30'9 9.6
2014-Aug-30 06:33N 18°09' W 063°38'9 8.6
2014-Aug-30 05:30N 17°60' W 063°37'1010.0
2014-Aug-30 04:29N 17°59' W 063°27'  
2014-Aug-26 12:00N 16°00' W 062°48'   070 / 81014.0 5.4 0.528.020.929.0
2014-Aug-23 23:32N 18°03' W 063°39'2116.3
2014-Aug-23 22:13N 18°00' W 063°17'1015.9
2014-Aug-23 21:33N 18°00' W 063°06'14 0.8
2014-Aug-23 03:26N 17°52' W 063°18'3610.5
2014-Aug-23 00:00N 17°24' W 062°54'   120 / 141012.010.8 0.528.022.429.0

Dump ship's entire track history